createdAt,value
2019-04-10T00:00:55.118Z,17.33
2019-04-10T00:03:31.847Z,17.97
2019-04-10T00:05:52.742Z,17.33
2019-04-10T00:08:20.516Z,17.03
2019-04-10T00:10:48.251Z,16.70
2019-04-10T00:13:16.026Z,17.20
2019-04-10T00:15:43.778Z,15.43
2019-04-10T00:18:11.635Z,16.83
2019-04-10T00:20:39.430Z,16.17
2019-04-10T00:23:08.934Z,15.93
2019-04-10T00:25:37.076Z,17.33
2019-04-10T00:28:05.311Z,17.77
2019-04-10T00:30:33.349Z,17.00
2019-04-10T00:33:01.146Z,16.80
2019-04-10T00:35:29.738Z,17.23
2019-04-10T00:37:57.575Z,17.03
2019-04-10T00:40:25.627Z,16.77
2019-04-10T00:42:53.742Z,17.33
2019-04-10T00:45:21.718Z,16.93
2019-04-10T00:47:49.546Z,17.40
2019-04-10T00:50:18.182Z,16.87
2019-04-10T00:52:46.207Z,15.73
2019-04-10T00:55:13.997Z,16.07
2019-04-10T00:57:41.734Z,15.87
2019-04-10T01:00:09.801Z,16.20
2019-04-10T01:02:37.664Z,15.70
2019-04-10T01:05:05.601Z,15.80
2019-04-10T01:07:39.429Z,16.50
2019-04-10T01:10:04.358Z,15.87
2019-04-10T01:12:32.131Z,16.23
2019-04-10T01:15:00.261Z,16.23
2019-04-10T01:17:28.552Z,15.50
2019-04-10T01:19:56.551Z,15.63
2019-04-10T01:22:25.316Z,16.30
2019-04-10T01:24:54.338Z,16.00
2019-04-10T01:27:22.241Z,15.93
2019-04-10T01:29:50.003Z,16.63
2019-04-10T01:32:17.728Z,15.63
2019-04-10T01:34:45.549Z,15.87
2019-04-10T01:37:13.442Z,15.73
2019-04-10T01:39:42.262Z,15.40
2019-04-10T01:42:10.050Z,15.87
2019-04-10T01:44:38.568Z,16.47
2019-04-10T01:47:06.773Z,16.57
2019-04-10T01:49:34.638Z,17.33
2019-04-10T01:52:02.381Z,16.70
2019-04-10T01:54:31.120Z,16.63
2019-04-10T01:56:59.715Z,16.00
2019-04-10T01:59:29.902Z,16.60
2019-04-10T02:02:05.463Z,16.57
2019-04-10T02:04:33.204Z,16.27
2019-04-10T02:07:02.081Z,17.60
2019-04-10T02:09:29.866Z,17.57
2019-04-10T02:11:58.522Z,16.87
2019-04-10T02:14:26.352Z,17.07
2019-04-10T02:16:54.897Z,15.80
2019-04-10T02:19:23.852Z,16.87
2019-04-10T02:21:51.893Z,16.60
2019-04-10T02:24:19.634Z,15.73
2019-04-10T02:26:47.739Z,18.17
2019-04-10T02:29:15.607Z,16.80
2019-04-10T02:31:44.216Z,17.37
2019-04-10T02:34:12.900Z,17.00
2019-04-10T02:36:42.419Z,17.40
2019-04-10T02:39:20.640Z,17.60
2019-04-10T02:41:41.422Z,17.60
2019-04-10T02:44:10.237Z,18.40
2019-04-10T02:46:38.857Z,18.43
2019-04-10T02:49:08.117Z,18.20
2019-04-10T02:51:36.350Z,17.50
2019-04-10T02:54:05.099Z,18.03
2019-04-10T02:56:33.250Z,18.63
2019-04-10T02:59:02.683Z,17.93
2019-04-10T03:01:31.562Z,19.23
2019-04-10T03:03:59.458Z,17.40
2019-04-10T03:06:27.377Z,18.57
2019-04-10T03:09:13.820Z,17.80
2019-04-10T03:11:26.482Z,19.73
2019-04-10T03:13:55.597Z,18.13
2019-04-10T03:16:23.709Z,19.13
2019-04-10T03:18:51.507Z,19.00
2019-04-10T03:21:19.238Z,20.00
2019-04-10T03:23:47.567Z,18.93
2019-04-10T03:26:15.438Z,18.67
2019-04-10T03:28:43.206Z,18.80
2019-04-10T03:31:12.935Z,18.47
2019-04-10T03:34:00.993Z,18.50
2019-04-10T03:36:36.019Z,18.50
2019-04-10T03:39:07.947Z,19.07
2019-04-10T03:41:36.663Z,19.57
2019-04-10T03:44:04.592Z,18.50
2019-04-10T03:46:33.237Z,20.17
2019-04-10T03:49:01.239Z,19.93
2019-04-10T03:51:30.297Z,19.53
2019-04-10T03:53:58.462Z,20.10
2019-04-10T03:56:26.678Z,19.77
2019-04-10T03:58:54.412Z,20.00
2019-04-10T04:01:22.991Z,20.43
2019-04-10T04:03:51.153Z,19.97
2019-04-10T04:06:19.575Z,20.00
2019-04-10T04:08:47.957Z,20.63
2019-04-10T04:11:17.613Z,20.90
2019-04-10T04:13:45.905Z,20.33
2019-04-10T04:16:13.653Z,20.83
2019-04-10T04:18:41.553Z,21.90
2019-04-10T04:21:09.747Z,20.33
2019-04-10T04:23:38.284Z,20.90
2019-04-10T04:26:07.160Z,20.53
2019-04-10T04:28:34.981Z,21.07
2019-04-10T04:31:03.124Z,19.43
2019-04-10T04:33:31.906Z,20.43
2019-04-10T04:35:59.924Z,19.43
2019-04-10T04:38:27.742Z,20.40
2019-04-10T04:40:55.604Z,20.27
2019-04-10T04:43:23.429Z,21.30
2019-04-10T04:45:51.607Z,19.23
2019-04-10T04:48:19.569Z,19.97
2019-04-10T04:50:47.427Z,20.37
2019-04-10T04:53:16.236Z,20.70
2019-04-10T04:55:44.972Z,20.60
2019-04-10T04:58:13.768Z,20.53
2019-04-10T05:00:41.805Z,19.77
2019-04-10T05:03:10.012Z,19.83
2019-04-10T05:05:37.781Z,19.47
2019-04-10T05:08:06.861Z,20.00
2019-04-10T05:10:35.670Z,20.47
2019-04-10T05:13:04.051Z,20.43
2019-04-10T05:15:31.880Z,20.53
2019-04-10T05:17:59.764Z,20.07
2019-04-10T05:20:39.458Z,20.83
2019-04-10T05:22:57.629Z,19.20
2019-04-10T05:25:25.408Z,18.90
2019-04-10T05:27:53.272Z,20.73
2019-04-10T05:30:21.034Z,19.20
2019-04-10T05:32:49.367Z,19.43
2019-04-10T05:35:17.290Z,19.47
2019-04-10T05:37:45.698Z,19.37
2019-04-10T05:40:13.576Z,18.90
2019-04-10T05:42:41.606Z,19.07
2019-04-10T05:45:09.712Z,18.80
2019-04-10T05:47:38.459Z,18.27
2019-04-10T05:50:07.110Z,19.30
2019-04-10T05:52:35.334Z,18.60
2019-04-10T05:55:04.199Z,19.20
2019-04-10T05:57:32.885Z,16.93
2019-04-10T06:00:00.728Z,18.97
2019-04-10T06:02:28.495Z,21.67
2019-04-10T06:04:56.282Z,19.20
2019-04-10T06:07:24.027Z,18.80
2019-04-10T06:09:55.818Z,18.40
2019-04-10T06:12:22.351Z,17.27
2019-04-10T06:14:50.480Z,18.50
2019-04-10T06:17:18.455Z,17.63
2019-04-10T06:19:46.829Z,17.37
2019-04-10T06:22:14.712Z,17.90
2019-04-10T06:24:42.571Z,17.47
2019-04-10T06:27:10.417Z,18.23
2019-04-10T06:29:39.331Z,17.10
2019-04-10T06:32:07.397Z,17.30
2019-04-10T06:34:36.295Z,17.50
2019-04-10T06:37:04.228Z,17.57
2019-04-10T06:39:33.004Z,16.53
2019-04-10T06:42:00.905Z,16.63
2019-04-10T06:44:28.665Z,17.30
2019-04-10T06:46:57.044Z,16.33
2019-04-10T06:49:24.965Z,16.87
2019-04-10T06:51:53.527Z,16.27
2019-04-10T06:54:21.358Z,16.63
2019-04-10T06:56:50.282Z,15.83
2019-04-10T06:59:18.120Z,15.60
2019-04-10T07:01:51.214Z,15.50
2019-04-10T07:04:15.570Z,16.00
2019-04-10T07:06:52.824Z,14.47
2019-04-10T07:09:21.374Z,14.80
2019-04-10T07:11:53.442Z,15.10
2019-04-10T07:14:18.461Z,14.77
2019-04-10T07:16:46.507Z,15.40
2019-04-10T07:19:14.287Z,15.20
2019-04-10T07:21:42.691Z,15.07
2019-04-10T07:24:12.206Z,14.10
2019-04-10T07:26:43.728Z,13.60
2019-04-10T07:29:10.948Z,14.50
2019-04-10T07:31:39.766Z,13.77
2019-04-10T07:34:08.727Z,13.93
2019-04-10T07:36:41.636Z,13.40
2019-04-10T07:39:07.698Z,12.93
2019-04-10T07:41:35.584Z,14.20
2019-04-10T07:44:03.727Z,13.57
2019-04-10T07:46:32.575Z,13.20
2019-04-10T07:49:00.744Z,13.70
2019-04-10T07:51:29.730Z,12.63
2019-04-10T07:53:57.794Z,11.83
2019-04-10T07:56:26.665Z,10.87
2019-04-10T07:58:54.569Z,11.23
2019-04-10T08:01:22.332Z,10.47
2019-04-10T08:03:52.389Z,10.50
2019-04-10T08:06:20.006Z,10.70
2019-04-10T08:08:47.813Z,10.63
2019-04-10T08:11:15.552Z,10.70
2019-04-10T08:13:43.327Z,10.33
2019-04-10T08:16:11.257Z,9.88
2019-04-10T08:18:39.461Z,9.95
2019-04-10T08:21:08.272Z,10.15
2019-04-10T08:23:36.032Z,9.40
2019-04-10T08:26:03.874Z,10.25
2019-04-10T08:28:32.794Z,8.78
2019-04-10T08:31:01.008Z,9.38
2019-04-10T08:33:30.123Z,8.65
2019-04-10T08:35:58.935Z,9.73
2019-04-10T08:38:27.939Z,9.18
2019-04-10T08:40:56.607Z,8.95
2019-04-10T08:43:24.518Z,10.18
2019-04-10T08:45:53.677Z,8.75
2019-04-10T08:48:22.010Z,8.18
2019-04-10T08:50:50.373Z,7.53
2019-04-10T08:53:18.190Z,7.37
2019-04-10T08:55:46.231Z,7.62
2019-04-10T08:58:14.513Z,8.28
2019-04-10T09:00:42.846Z,7.90
2019-04-10T09:03:10.896Z,7.80
2019-04-10T09:05:38.797Z,6.42
2019-04-10T09:08:06.543Z,7.50
2019-04-10T09:10:34.868Z,6.75
2019-04-10T09:13:02.604Z,7.37
2019-04-10T09:15:30.352Z,6.70
2019-04-10T09:17:58.077Z,6.92
2019-04-10T09:20:26.785Z,6.53
2019-04-10T09:23:13.402Z,6.62
2019-04-10T09:25:24.924Z,6.20
2019-04-10T09:27:53.815Z,6.17
2019-04-10T09:30:21.688Z,6.40
2019-04-10T09:32:49.425Z,6.15
2019-04-10T09:35:18.293Z,6.28
2019-04-10T09:37:46.285Z,5.60
2019-04-10T09:40:14.415Z,6.15
2019-04-10T09:42:42.202Z,6.20
2019-04-10T09:45:10.056Z,6.17
2019-04-10T09:47:37.803Z,5.85
2019-04-10T09:50:07.707Z,7.42
2019-04-10T09:52:35.763Z,5.92
2019-04-10T09:55:05.126Z,6.40
2019-04-10T09:57:32.860Z,6.08
2019-04-10T10:00:00.989Z,6.60
2019-04-10T10:02:28.754Z,6.58
2019-04-10T10:04:56.499Z,6.12
2019-04-10T10:07:24.241Z,5.95
2019-04-10T10:09:52.034Z,6.10
2019-04-10T10:12:20.192Z,5.97
2019-04-10T10:14:48.388Z,6.25
2019-04-10T10:17:16.904Z,6.28
2019-04-10T10:19:45.998Z,6.20
2019-04-10T10:22:14.681Z,6.80
2019-04-10T10:24:42.667Z,6.35
2019-04-10T10:27:10.541Z,5.80
2019-04-10T10:29:38.342Z,6.15
2019-04-10T10:32:06.090Z,5.95
2019-04-10T10:34:34.573Z,5.90
2019-04-10T10:37:03.874Z,6.65
2019-04-10T10:39:31.756Z,5.97
2019-04-10T10:41:59.511Z,6.10
2019-04-10T10:44:27.272Z,6.33
2019-04-10T10:46:55.773Z,6.08
2019-04-10T10:49:24.355Z,6.62
2019-04-10T10:51:53.215Z,6.78
2019-04-10T10:54:21.247Z,6.37
2019-04-10T10:56:49.065Z,6.00
2019-04-10T10:59:17.577Z,6.15
2019-04-10T11:01:46.324Z,5.72
2019-04-10T11:04:15.036Z,6.00
2019-04-10T11:06:51.759Z,6.12
2019-04-10T11:09:15.632Z,5.78
2019-04-10T11:11:43.553Z,5.95
2019-04-10T11:14:11.416Z,6.17
2019-04-10T11:16:39.284Z,6.50
2019-04-10T11:19:07.169Z,5.95
2019-04-10T11:21:35.008Z,5.95
2019-04-10T11:24:03.141Z,5.97
2019-04-10T11:26:31.002Z,5.53
2019-04-10T11:28:59.148Z,5.85
2019-04-10T11:31:26.924Z,5.85
2019-04-10T11:33:56.405Z,5.72
2019-04-10T11:36:24.352Z,6.03
2019-04-10T11:38:55.328Z,5.85
2019-04-10T11:41:23.424Z,5.95
2019-04-10T11:43:52.669Z,6.35
2019-04-10T11:46:22.727Z,7.03
2019-04-10T11:48:51.919Z,5.55
2019-04-10T11:51:23.325Z,6.00
2019-04-10T11:53:54.390Z,6.25
2019-04-10T11:56:21.186Z,6.20
2019-04-10T12:01:21.610Z,6.37
2019-04-10T12:03:51.561Z,6.37
2019-04-10T12:06:20.682Z,5.83
2019-04-10T12:09:08.530Z,5.70
2019-04-10T12:11:19.932Z,5.62
2019-04-10T12:13:46.980Z,5.75
2019-04-10T12:16:14.836Z,6.15
2019-04-10T12:18:42.612Z,5.78
2019-04-10T12:21:10.464Z,5.50
2019-04-10T12:23:38.184Z,6.30
2019-04-10T12:26:05.935Z,6.40
2019-04-10T12:28:33.911Z,4.90
2019-04-10T12:31:01.823Z,5.60
2019-04-10T12:33:29.734Z,5.67
2019-04-10T12:35:58.208Z,5.75
2019-04-10T12:38:26.024Z,5.50
2019-04-10T12:40:53.739Z,5.22
2019-04-10T12:43:21.495Z,6.00
2019-04-10T12:45:49.269Z,5.80
2019-04-10T12:48:20.837Z,5.65
2019-04-10T12:50:49.513Z,5.17
2019-04-10T12:53:17.401Z,5.58
2019-04-10T12:55:45.868Z,5.62
2019-04-10T12:58:17.593Z,5.90
2019-04-10T13:00:44.596Z,5.58
2019-04-10T13:03:12.464Z,5.35
2019-04-10T13:05:41.132Z,6.17
2019-04-10T13:08:19.050Z,5.35
2019-04-10T13:10:39.808Z,5.40
2019-04-10T13:13:07.629Z,5.80
2019-04-10T13:15:35.406Z,6.20
2019-04-10T13:18:03.870Z,6.97
2019-04-10T13:20:31.707Z,5.97
2019-04-10T13:23:00.331Z,5.70
2019-04-10T13:25:28.209Z,5.62
2019-04-10T13:27:56.012Z,6.72
2019-04-10T13:30:24.929Z,5.70
2019-04-10T13:32:53.021Z,5.72
2019-04-10T13:35:21.941Z,6.45
2019-04-10T13:37:50.638Z,6.35
2019-04-10T13:40:19.443Z,6.00
2019-04-10T13:42:47.455Z,6.08
2019-04-10T13:45:17.425Z,5.67
2019-04-10T13:47:45.299Z,6.15
2019-04-10T13:50:13.200Z,5.60
2019-04-10T13:52:42.928Z,5.37
2019-04-10T13:55:11.697Z,5.72
2019-04-10T13:57:39.574Z,6.42
2019-04-10T14:00:13.200Z,6.08
2019-04-10T14:02:41.558Z,5.47
2019-04-10T14:05:11.733Z,5.83
2019-04-10T14:07:40.200Z,6.23
2019-04-10T14:10:08.418Z,5.50
2019-04-10T14:12:36.456Z,6.17
2019-04-10T14:15:05.042Z,5.20
2019-04-10T14:17:33.374Z,6.27
2019-04-10T14:20:01.143Z,5.30
2019-04-10T14:22:29.546Z,6.00
2019-04-10T14:24:57.423Z,6.12
2019-04-10T14:27:27.881Z,5.93
2019-04-10T14:29:56.656Z,5.30
2019-04-10T14:32:29.460Z,5.80
2019-04-10T14:34:57.241Z,5.67
2019-04-10T14:37:25.327Z,5.90
2019-04-10T14:39:53.211Z,5.40
2019-04-10T14:42:20.944Z,5.90
2019-04-10T14:44:48.756Z,5.70
2019-04-10T14:47:17.168Z,5.77
2019-04-10T14:49:45.188Z,5.20
2019-04-10T14:52:13.026Z,5.03
2019-04-10T14:54:40.796Z,5.00
2019-04-10T14:57:08.542Z,4.77
2019-04-10T14:59:36.275Z,4.93
2019-04-10T15:02:06.378Z,4.33
2019-04-10T15:04:35.222Z,4.80
2019-04-10T15:07:03.929Z,4.87
2019-04-10T15:09:32.501Z,4.47
2019-04-10T15:12:00.252Z,4.93
2019-04-10T15:14:28.040Z,4.50
2019-04-10T15:17:03.492Z,5.50
2019-04-10T15:19:26.737Z,4.97
2019-04-10T15:21:55.773Z,4.73
2019-04-10T15:24:23.812Z,4.40
2019-04-10T15:26:51.702Z,4.47
2019-04-10T15:29:21.196Z,4.27
2019-04-10T15:31:49.992Z,4.77
2019-04-10T15:34:18.314Z,4.40
2019-04-10T15:36:47.609Z,4.20
2019-04-10T15:39:16.819Z,4.70
2019-04-10T15:41:45.535Z,4.50
2019-04-10T15:44:14.079Z,4.90
2019-04-10T15:46:43.529Z,4.60
2019-04-10T15:49:11.395Z,4.97
2019-04-10T15:51:39.329Z,4.63
2019-04-10T15:54:07.702Z,4.77
2019-04-10T15:56:36.136Z,5.00
2019-04-10T15:59:04.049Z,5.10
2019-04-10T16:01:32.971Z,5.53
2019-04-10T16:04:01.155Z,4.63
2019-04-10T16:06:29.348Z,4.60
2019-04-10T16:08:57.175Z,5.10
2019-04-10T16:11:56.731Z,4.77
2019-04-10T16:14:28.404Z,4.63
2019-04-10T16:17:17.493Z,4.97
2019-04-10T16:20:03.971Z,4.60
2019-04-10T16:22:40.562Z,5.10
2019-04-10T16:25:22.710Z,5.23
2019-04-10T16:27:50.489Z,4.40
2019-04-10T16:30:22.020Z,4.70
2019-04-10T16:32:50.188Z,4.70
2019-04-10T16:35:19.050Z,5.33
2019-04-10T16:37:47.494Z,5.37
2019-04-10T16:40:15.325Z,5.57
2019-04-10T16:42:43.614Z,4.70
2019-04-10T16:45:13.473Z,4.90
2019-04-10T16:47:42.000Z,4.63
2019-04-10T16:50:11.200Z,4.60
2019-04-10T16:52:39.075Z,4.90
2019-04-10T16:55:08.410Z,4.67
2019-04-10T16:57:36.656Z,5.10
2019-04-10T17:00:06.919Z,4.93
2019-04-10T17:02:35.995Z,5.03
2019-04-10T17:05:05.981Z,5.27
2019-04-10T17:07:34.866Z,5.00
2019-04-10T17:10:13.090Z,4.80
2019-04-10T17:12:34.123Z,5.17
2019-04-10T17:15:02.088Z,5.33
2019-04-10T17:17:30.537Z,4.97
2019-04-10T17:19:59.498Z,5.27
2019-04-10T17:22:32.338Z,5.07
2019-04-10T17:24:57.880Z,4.97
2019-04-10T17:27:25.819Z,5.30
2019-04-10T17:29:55.239Z,5.03
2019-04-10T17:32:23.504Z,5.43
2019-04-10T17:34:51.518Z,5.50
2019-04-10T17:37:19.442Z,5.23
2019-04-10T17:39:47.378Z,5.60
2019-04-10T17:42:16.449Z,5.93
2019-04-10T17:44:45.576Z,6.07
2019-04-10T17:47:14.431Z,5.90
2019-04-10T17:49:43.400Z,5.50
2019-04-10T17:52:11.334Z,5.80
2019-04-10T17:54:39.189Z,6.07
2019-04-10T17:57:06.977Z,6.03
2019-04-10T17:59:34.955Z,6.33
2019-04-10T18:02:07.520Z,5.80
2019-04-10T18:04:35.369Z,5.93
2019-04-10T18:07:03.868Z,5.40
2019-04-10T18:09:32.741Z,5.50
2019-04-10T18:12:01.084Z,5.57
2019-04-10T18:14:29.140Z,5.17
2019-04-10T18:16:58.152Z,6.07
2019-04-10T18:19:26.034Z,6.17
2019-04-10T18:21:54.192Z,5.50
2019-04-10T18:24:22.156Z,5.50
2019-04-10T18:26:52.312Z,5.43
2019-04-10T18:29:19.664Z,6.13
2019-04-10T18:31:47.437Z,5.80
2019-04-10T18:34:15.506Z,5.80
2019-04-10T18:36:46.301Z,5.80
2019-04-10T18:39:18.303Z,5.97
2019-04-10T18:41:46.706Z,5.70
2019-04-10T18:44:15.050Z,5.57
2019-04-10T18:46:43.753Z,5.90
2019-04-10T18:49:11.565Z,5.67
2019-04-10T18:51:40.373Z,5.43
2019-04-10T18:54:10.811Z,5.37
2019-04-10T18:56:37.889Z,5.23
2019-04-10T18:59:12.390Z,5.93
2019-04-10T19:01:49.381Z,5.57
2019-04-10T19:04:39.225Z,5.57
2019-04-10T19:07:07.113Z,6.00
2019-04-10T19:09:36.864Z,6.10
2019-04-10T19:12:04.702Z,5.60
2019-04-10T19:14:36.205Z,5.50
2019-04-10T19:17:03.687Z,5.37
2019-04-10T19:19:32.389Z,5.60
2019-04-10T19:22:00.297Z,5.70
2019-04-10T19:24:30.219Z,5.77
2019-04-10T19:26:58.171Z,5.67
2019-04-10T19:29:25.931Z,5.33
2019-04-10T19:31:56.393Z,5.33
2019-04-10T19:34:25.322Z,5.17
2019-04-10T19:36:54.328Z,5.13
2019-04-10T19:39:22.367Z,6.33
2019-04-10T19:41:50.983Z,6.20
2019-04-10T19:44:19.077Z,4.83
2019-04-10T19:46:48.027Z,5.40
2019-04-10T19:49:16.369Z,4.90
2019-04-10T19:51:44.176Z,5.13
2019-04-10T19:54:11.987Z,5.00
2019-04-10T19:56:40.512Z,5.50
2019-04-10T19:59:08.451Z,5.20
2019-04-10T20:01:36.269Z,5.03
2019-04-10T20:04:04.069Z,5.40
2019-04-10T20:06:32.211Z,5.40
2019-04-10T20:09:00.157Z,5.80
2019-04-10T20:11:37.532Z,5.10
2019-04-10T20:13:59.999Z,5.30
2019-04-10T20:16:27.268Z,5.17
2019-04-10T20:18:55.029Z,4.50
2019-04-10T20:21:23.829Z,4.90
2019-04-10T20:23:52.333Z,5.20
2019-04-10T20:26:21.050Z,5.40
2019-04-10T20:28:49.750Z,5.70
2019-04-10T20:31:24.161Z,5.97
2019-04-10T20:33:51.937Z,5.30
2019-04-10T20:36:20.587Z,5.33
2019-04-10T20:38:48.471Z,5.37
2019-04-10T20:41:16.304Z,5.47
2019-04-10T20:43:44.848Z,5.50
2019-04-10T20:46:13.767Z,5.40
2019-04-10T20:48:41.629Z,5.27
2019-04-10T20:51:10.292Z,5.17
2019-04-10T20:53:38.074Z,5.43
2019-04-10T20:56:06.250Z,5.00
2019-04-10T20:58:34.101Z,5.40
2019-04-10T21:01:01.876Z,5.20
2019-04-10T21:03:31.766Z,5.23
2019-04-10T21:06:00.456Z,5.30
2019-04-10T21:08:28.217Z,5.13
2019-04-10T21:10:56.964Z,5.50
2019-04-10T21:13:25.380Z,5.13
2019-04-10T21:15:53.301Z,5.77
2019-04-10T21:18:22.152Z,6.10
2019-04-10T21:20:50.011Z,5.63
2019-04-10T21:23:17.811Z,6.03
2019-04-10T21:25:45.658Z,6.10
2019-04-10T21:28:14.131Z,5.37
2019-04-10T21:30:53.110Z,5.33
2019-04-10T21:33:26.655Z,5.63
2019-04-10T21:35:54.435Z,5.67
2019-04-10T21:38:22.171Z,5.13
2019-04-10T21:40:49.890Z,5.17
2019-04-10T21:43:18.554Z,4.97
2019-04-10T21:45:47.569Z,5.43
2019-04-10T21:48:15.383Z,5.30
2019-04-10T21:50:43.946Z,5.50
2019-04-10T21:53:12.227Z,5.47
2019-04-10T21:55:40.021Z,5.60
2019-04-10T21:58:08.177Z,5.30
2019-04-10T22:00:54.015Z,5.47
2019-04-10T22:03:22.305Z,5.17
2019-04-10T22:05:55.342Z,5.10
2019-04-10T22:08:33.648Z,5.20
2019-04-10T22:11:01.445Z,4.97
2019-04-10T22:13:30.185Z,5.03
2019-04-10T22:15:59.572Z,5.37
2019-04-10T22:18:27.561Z,5.33
2019-04-10T22:20:57.078Z,5.57
2019-04-10T22:23:24.967Z,5.33
2019-04-10T22:25:52.817Z,5.67
2019-04-10T22:28:21.124Z,5.50
2019-04-10T22:30:50.593Z,6.00
2019-04-10T22:33:18.537Z,5.27
2019-04-10T22:35:46.357Z,5.47
2019-04-10T22:38:15.179Z,5.47
2019-04-10T22:40:44.155Z,5.13
2019-04-10T22:43:11.983Z,5.13
2019-04-10T22:45:40.179Z,5.37
2019-04-10T22:48:08.348Z,5.33
2019-04-10T22:50:36.524Z,5.67
2019-04-10T22:53:04.716Z,5.33
2019-04-10T22:55:33.729Z,5.50
2019-04-10T22:58:02.527Z,5.60
2019-04-10T23:00:30.851Z,5.60
2019-04-10T23:02:58.855Z,5.40
2019-04-10T23:05:28.701Z,5.80
2019-04-10T23:07:56.978Z,5.97
2019-04-10T23:10:24.906Z,5.40
2019-04-10T23:12:59.985Z,5.83
2019-04-10T23:15:23.114Z,5.87
2019-04-10T23:17:50.987Z,5.80
2019-04-10T23:20:18.721Z,5.90
2019-04-10T23:22:48.518Z,6.00
2019-04-10T23:25:16.185Z,5.70
2019-04-10T23:27:44.100Z,6.20
2019-04-10T23:30:15.592Z,5.77
2019-04-10T23:32:43.610Z,5.73
2019-04-10T23:35:11.608Z,5.53
2019-04-10T23:37:39.470Z,5.60
2019-04-10T23:40:08.363Z,5.97
2019-04-10T23:42:36.243Z,5.63
2019-04-10T23:45:05.158Z,5.63
2019-04-10T23:47:34.023Z,6.57
2019-04-10T23:50:01.991Z,5.87
2019-04-10T23:52:29.792Z,6.47
2019-04-10T23:54:57.622Z,6.17
2019-04-10T23:57:25.451Z,6.23
2019-04-10T23:59:53.199Z,6.20
